»·PEaware :: SWA3937 KPHX-KABQ

SWA3937 :: KPHX-KABQ

FLIGHT INFORMATION

Flight Status: Arrived
Operator:
Southwest Airlines
More flights by this operator :: More flights under this callsign
Pilot: John C. (18682)
Aircraft: BOEING 737-800
(B738)
More flights by this aircraft type
Origin: KPHX Phoenix Sky Harbor Intl
United States
Destination: KABQ Albuquerque Intl Sunport
United States
More flights between these airports :: More routes between these airports
Route: FORPE1 FORPE +CABNO KRKEE3+
File this flight plan on PilotEdge
Remarks:
Altitude:
(Current/Filed)
31,000ft
Speed:
(Current/Filed)
453kts
Departed: 03-Dec-20 06:06 PM
Arrived: 03-Dec-20 06:54 PM
Distance/Time
Traveled:
285nm/0:48
Distance/Time
To Go:
Arrived

Flight Plot

Page will automatically refresh every two minutes.

Flight plan parsing failed; only flown route is shown


Map Options




Map Legend


Flown Route
Filed Route
Departure Airport
Arrival Airport
Navaid (VOR, NDB)
Fix

Horizontal Profiles

Position Reports

Time Latitude Longitude Heading Altitude Ground
Speed
03-Dec-20 17:41 33.433700 -111.998728 322 1126ft 0kts
03-Dec-20 17:42 33.433700 -111.998728 322 1126ft 0kts
03-Dec-20 17:43 33.433700 -111.998728 322 1126ft 0kts
03-Dec-20 17:44 33.433700 -111.998728 322 1126ft 0kts
03-Dec-20 17:45 33.433700 -111.998728 322 1126ft 0kts
03-Dec-20 17:46 33.433700 -111.998728 322 1126ft 0kts
03-Dec-20 17:47 33.433700 -111.998728 322 1126ft 0kts
03-Dec-20 17:48 33.433700 -111.998728 322 1126ft 0kts
03-Dec-20 17:49 33.433700 -111.998728 322 1125ft 0kts
03-Dec-20 17:50 33.433700 -111.998728 322 1125ft 0kts
03-Dec-20 17:51 33.433700 -111.998728 322 1125ft 0kts
03-Dec-20 17:52 33.433700 -111.998728 322 1125ft 0kts
03-Dec-20 17:53 33.433700 -111.998728 322 1125ft 0kts
03-Dec-20 17:54 33.433547 -111.998589 322 1125ft 2kts
03-Dec-20 17:55 33.433063 -111.998149 322 1125ft 2kts
03-Dec-20 17:56 33.432829 -111.997741 269 1125ft 1kts
03-Dec-20 17:57 33.432829 -111.997734 269 1125ft 0kts
03-Dec-20 17:58 33.432829 -111.997734 269 1125ft 0kts
03-Dec-20 17:59 33.432832 -112.001335 270 1127ft 16kts
03-Dec-20 18:00 33.432153 -112.005290 269 1128ft 11kts
03-Dec-20 18:01 33.432156 -112.011365 269 1128ft 22kts
03-Dec-20 18:02 33.432157 -112.018933 269 1120ft 22kts
03-Dec-20 18:03 33.432168 -112.026065 270 1116ft 16kts
03-Dec-20 18:04 33.431044 -112.025198 91 1118ft 38kts
03-Dec-20 18:05 33.431558 -111.975012 89 2458ft 195kts
03-Dec-20 18:06 33.435742 -111.901046 85 4397ft 264kts
03-Dec-20 18:07 33.461544 -111.817512 57 7759ft 277kts
03-Dec-20 18:08 33.496334 -111.734081 61 10722ft 306kts
03-Dec-20 18:09 33.536383 -111.635804 62 13256ft 337kts
03-Dec-20 18:10 33.577953 -111.534104 61 16167ft 347kts
03-Dec-20 18:11 33.621086 -111.429022 61 18795ft 356kts
03-Dec-20 18:12 33.665616 -111.321044 61 21131ft 367kts
03-Dec-20 18:13 33.706149 -111.207154 66 23261ft 378kts
03-Dec-20 18:14 33.743188 -111.087672 66 25193ft 386kts
03-Dec-20 18:15 33.780833 -110.965623 67 26931ft 394kts
03-Dec-20 18:16 33.819169 -110.840807 67 28411ft 403kts
03-Dec-20 18:17 33.858318 -110.712871 67 29802ft 410kts
03-Dec-20 18:18 33.897447 -110.584355 67 31333ft 410kts
03-Dec-20 18:19 33.936685 -110.454995 67 31357ft 410kts
03-Dec-20 18:20 33.975690 -110.325808 67 31357ft 411kts
03-Dec-20 18:21 34.014545 -110.196352 67 31357ft 412kts
03-Dec-20 18:22 34.053321 -110.066734 67 31356ft 410kts
03-Dec-20 18:23 34.091847 -109.937451 67 31357ft 412kts
03-Dec-20 18:24 34.130589 -109.806914 67 31351ft 413kts
03-Dec-20 18:25 34.168944 -109.677089 67 31348ft 410kts
03-Dec-20 18:26 34.207231 -109.546878 67 31345ft 412kts
03-Dec-20 18:27 34.245261 -109.416928 67 31338ft 410kts
03-Dec-20 18:28 34.283254 -109.286404 68 31334ft 411kts
03-Dec-20 18:29 34.321034 -109.156065 68 31330ft 413kts
03-Dec-20 18:30 34.359378 -109.023435 68 31325ft 424kts
03-Dec-20 18:31 34.398619 -108.887165 69 31323ft 428kts
03-Dec-20 18:32 34.437374 -108.751712 69 31331ft 426kts
03-Dec-20 18:33 34.475928 -108.616253 69 31335ft 427kts
03-Dec-20 18:34 34.508678 -108.478011 75 31345ft 427kts
03-Dec-20 18:35 34.533015 -108.336916 76 31347ft 427kts
03-Dec-20 18:36 34.557006 -108.196931 76 31348ft 421kts
03-Dec-20 18:37 34.580924 -108.056588 76 31348ft 425kts
03-Dec-20 18:38 34.604982 -107.914680 76 28672ft 440kts
03-Dec-20 18:39 34.638795 -107.776059 65 26178ft 409kts
03-Dec-20 18:40 34.688648 -107.654358 60 23336ft 398kts
03-Dec-20 18:41 34.738897 -107.537248 60 20686ft 384kts
03-Dec-20 18:42 34.787151 -107.424688 60 18179ft 370kts
03-Dec-20 18:43 34.832546 -107.318323 60 15837ft 336kts
03-Dec-20 18:44 34.873043 -107.221151 61 13798ft 313kts
03-Dec-20 18:45 34.910630 -107.130603 60 12681ft 290kts
03-Dec-20 18:46 34.947968 -107.043150 60 11036ft 290kts
03-Dec-20 18:47 34.984197 -106.957160 62 9883ft 270kts
03-Dec-20 18:48 35.015727 -106.876436 63 8517ft 250kts
03-Dec-20 18:49 35.042447 -106.807401 69 8016ft 202kts
03-Dec-20 18:50 35.044958 -106.740358 89 7207ft 197kts
03-Dec-20 18:51 35.044642 -106.680593 89 6355ft 164kts
03-Dec-20 18:52 35.044421 -106.625628 89 5498ft 163kts
03-Dec-20 18:53 35.044271 -106.594408 85 5339ft 16kts
03-Dec-20 18:54 35.045816 -106.592372 270 5341ft 12kts
03-Dec-20 18:56 35.045819 -106.598829 265 5334ft 23kts
03-Dec-20 18:57 35.045772 -106.607098 270 5324ft 24kts
03-Dec-20 18:58 35.046475 -106.613110 1 5324ft 10kts
03-Dec-20 18:59 35.048270 -106.614578 232 5324ft 10kts
03-Dec-20 19:00 35.047894 -106.614748 181 5324ft 0kts
03-Dec-20 19:01 35.047894 -106.614748 181 5324ft 0kts

Navigation Log

Ident Type
Flight plan parsing failed, navigation log unavailable